sensor_id;sensor_type;location;lat;lon;timestamp;pressure;altitude;pressure_sealevel;temperature;humidity
34931;BME280;21134;49.646;8.560;2023-12-07T00:01:32;100826.72;;;0.72;100.00
34931;BME280;21134;49.646;8.560;2023-12-07T00:03:59;100833.34;;;0.69;100.00
34931;BME280;21134;49.646;8.560;2023-12-07T00:06:26;100831.63;;;0.68;100.00
34931;BME280;21134;49.646;8.560;2023-12-07T00:08:55;100837.59;;;0.71;100.00
34931;BME280;21134;49.646;8.560;2023-12-07T00:11:23;100838.50;;;0.73;100.00
34931;BME280;21134;49.646;8.560;2023-12-07T00:13:50;100835.97;;;0.73;100.00
34931;BME280;21134;49.646;8.560;2023-12-07T00:16:16;100842.63;;;0.71;100.00
34931;BME280;21134;49.646;8.560;2023-12-07T00:18:44;100841.88;;;0.73;100.00
34931;BME280;21134;49.646;8.560;2023-12-07T00:21:11;100840.25;;;0.74;100.00
34931;BME280;21134;49.646;8.560;2023-12-07T00:23:37;100846.16;;;0.74;100.00
34931;BME280;21134;49.646;8.560;2023-12-07T00:26:04;100842.53;;;0.69;100.00
34931;BME280;21134;49.646;8.560;2023-12-07T00:28:30;100847.53;;;0.67;100.00
34931;BME280;21134;49.646;8.560;2023-12-07T00:30:57;100843.94;;;0.62;100.00
34931;BME280;21134;49.646;8.560;2023-12-07T00:33:23;100839.56;;;0.58;100.00
34931;BME280;21134;49.646;8.560;2023-12-07T00:35:51;100842.94;;;0.59;100.00
34931;BME280;21134;49.646;8.560;2023-12-07T00:38:17;100839.41;;;0.55;100.00
34931;BME280;21134;49.646;8.560;2023-12-07T00:40:45;100841.53;;;0.46;100.00
34931;BME280;21134;49.646;8.560;2023-12-07T00:43:11;100847.84;;;0.38;100.00
34931;BME280;21134;49.646;8.560;2023-12-07T00:45:38;100845.03;;;0.32;100.00
34931;BME280;21134;49.646;8.560;2023-12-07T00:48:04;100850.09;;;0.32;100.00
34931;BME280;21134;49.646;8.560;2023-12-07T00:50:31;100854.88;;;0.26;100.00
34931;BME280;21134;49.646;8.560;2023-12-07T00:52:59;100855.19;;;0.15;100.00
34931;BME280;21134;49.646;8.560;2023-12-07T00:55:25;100851.53;;;0.09;100.00
34931;BME280;21134;49.646;8.560;2023-12-07T00:57:51;100850.38;;;0.02;100.00
34931;BME280;21134;49.646;8.560;2023-12-07T01:00:18;100850.09;;;-0.04;100.00
34931;BME280;21134;49.646;8.560;2023-12-07T01:02:44;100854.13;;;-0.08;100.00
34931;BME280;21134;49.646;8.560;2023-12-07T01:05:11;100852.91;;;-0.16;100.00
34931;BME280;21134;49.646;8.560;2023-12-07T01:07:37;100862.03;;;-0.18;100.00
34931;BME280;21134;49.646;8.560;2023-12-07T01:10:06;100861.88;;;-0.21;100.00
34931;BME280;21134;49.646;8.560;2023-12-07T01:12:34;100872.63;;;-0.24;100.00
34931;BME280;21134;49.646;8.560;2023-12-07T01:15:01;100876.00;;;-0.23;100.00
34931;BME280;21134;49.646;8.560;2023-12-07T01:17:28;100873.28;;;-0.28;100.00
34931;BME280;21134;49.646;8.560;2023-12-07T01:19:54;100875.72;;;-0.29;100.00
34931;BME280;21134;49.646;8.560;2023-12-07T01:22:21;100880.59;;;-0.32;100.00
34931;BME280;21134;49.646;8.560;2023-12-07T01:24:48;100880.53;;;-0.34;100.00
34931;BME280;21134;49.646;8.560;2023-12-07T01:27:15;100879.72;;;-0.33;100.00
34931;BME280;21134;49.646;8.560;2023-12-07T01:29:43;100878.06;;;-0.32;100.00
34931;BME280;21134;49.646;8.560;2023-12-07T01:32:09;100878.97;;;-0.32;100.00
34931;BME280;21134;49.646;8.560;2023-12-07T01:34:36;100880.53;;;-0.34;100.00
34931;BME280;21134;49.646;8.560;2023-12-07T01:37:02;100888.22;;;-0.31;100.00
34931;BME280;21134;49.646;8.560;2023-12-07T01:39:29;100887.41;;;-0.30;100.00
34931;BME280;21134;49.646;8.560;2023-12-07T01:41:55;100890.59;;;-0.34;100.00
34931;BME280;21134;49.646;8.560;2023-12-07T01:44:23;100898.84;;;-0.36;100.00
34931;BME280;21134;49.646;8.560;2023-12-07T01:46:50;100895.31;;;-0.40;100.00
34931;BME280;21134;49.646;8.560;2023-12-07T01:49:17;100900.34;;;-0.40;100.00
34931;BME280;21134;49.646;8.560;2023-12-07T01:51:44;100888.63;;;-0.39;100.00
34931;BME280;21134;49.646;8.560;2023-12-07T01:54:10;100894.44;;;-0.40;100.00
34931;BME280;21134;49.646;8.560;2023-12-07T01:56:37;100901.34;;;-0.36;100.00
34931;BME280;21134;49.646;8.560;2023-12-07T01:59:03;100897.03;;;-0.39;100.00
34931;BME280;21134;49.646;8.560;2023-12-07T02:01:31;100899.69;;;-0.36;100.00
34931;BME280;21134;49.646;8.560;2023-12-07T02:03:58;100895.31;;;-0.40;100.00
34931;BME280;21134;49.646;8.560;2023-12-07T02:06:24;100896.00;;;-0.42;100.00
34931;BME280;21134;49.646;8.560;2023-12-07T02:08:51;100895.16;;;-0.43;100.00
34931;BME280;21134;49.646;8.560;2023-12-07T02:11:18;100898.47;;;-0.44;100.00
34931;BME280;21134;49.646;8.560;2023-12-07T02:13:44;100897.59;;;-0.44;100.00
34931;BME280;21134;49.646;8.560;2023-12-07T02:16:21;100900.28;;;-0.41;100.00
34931;BME280;21134;49.646;8.560;2023-12-07T02:18:59;100891.63;;;-0.47;100.00
34931;BME280;21134;49.646;8.560;2023-12-07T02:21:30;100890.78;;;-0.47;100.00
34931;BME280;21134;49.646;8.560;2023-12-07T02:24:02;100892.28;;;-0.51;100.00
34931;BME280;21134;49.646;8.560;2023-12-07T02:26:33;100896.34;;;-0.53;100.00
34931;BME280;21134;49.646;8.560;2023-12-07T02:29:00;100893.63;;;-0.57;100.00
34931;BME280;21134;49.646;8.560;2023-12-07T02:31:27;100898.50;;;-0.60;100.00
34931;BME280;21134;49.646;8.560;2023-12-07T02:33:53;100895.97;;;-0.60;100.00
34931;BME280;21134;49.646;8.560;2023-12-07T02:36:22;100903.25;;;-0.65;100.00
34931;BME280;21134;49.646;8.560;2023-12-07T02:38:51;100906.56;;;-0.66;100.00
34931;BME280;21134;49.646;8.560;2023-12-07T02:41:20;100900.69;;;-0.66;100.00
34931;BME280;21134;49.646;8.560;2023-12-07T02:43:48;100900.59;;;-0.68;100.00
34931;BME280;21134;49.646;8.560;2023-12-07T02:46:15;100893.59;;;-0.74;100.00
34931;BME280;21134;49.646;8.560;2023-12-07T02:48:41;100890.81;;;-0.80;100.00
34931;BME280;21134;49.646;8.560;2023-12-07T02:51:08;100894.19;;;-0.79;100.00
34931;BME280;21134;49.646;8.560;2023-12-07T02:53:34;100888.91;;;-0.84;100.00
34931;BME280;21134;49.646;8.560;2023-12-07T02:56:00;100889.69;;;-0.85;100.00
34931;BME280;21134;49.646;8.560;2023-12-07T02:58:27;100892.84;;;-0.89;100.00
34931;BME280;21134;49.646;8.560;2023-12-07T03:00:55;100886.16;;;-0.88;100.00
34931;BME280;21134;49.646;8.560;2023-12-07T03:03:22;100887.09;;;-0.86;100.00
34931;BME280;21134;49.646;8.560;2023-12-07T03:05:48;100892.75;;;-0.90;100.00
34931;BME280;21134;49.646;8.560;2023-12-07T03:08:15;100897.72;;;-0.92;100.00
34931;BME280;21134;49.646;8.560;2023-12-07T03:10:41;100899.34;;;-0.92;100.00
34931;BME280;21134;49.646;8.560;2023-12-07T03:13:07;100903.44;;;-0.95;100.00
34931;BME280;21134;49.646;8.560;2023-12-07T03:15:34;100905.06;;;-0.95;100.00
34931;BME280;21134;49.646;8.560;2023-12-07T03:18:02;100905.84;;;-0.96;100.00
34931;BME280;21134;49.646;8.560;2023-12-07T03:20:28;100906.56;;;-0.99;100.00
34931;BME280;21134;49.646;8.560;2023-12-07T03:22:55;100905.06;;;-0.95;100.00
34931;BME280;21134;49.646;8.560;2023-12-07T03:25:21;100909.94;;;-0.98;100.00
34931;BME280;21134;49.646;8.560;2023-12-07T03:27:48;100913.00;;;-1.04;100.00
34931;BME280;21134;49.646;8.560;2023-12-07T03:30:14;100914.72;;;-1.03;100.00
34931;BME280;21134;49.646;8.560;2023-12-07T03:32:41;100916.47;;;-1.02;100.00
34931;BME280;21134;49.646;8.560;2023-12-07T03:35:09;100920.59;;;-1.02;100.00
34931;BME280;21134;49.646;8.560;2023-12-07T03:37:35;100921.16;;;-1.08;100.00
34931;BME280;21134;49.646;8.560;2023-12-07T03:40:02;100918.47;;;-1.11;100.00
34931;BME280;21134;49.646;8.560;2023-12-07T03:42:31;100921.59;;;-1.15;100.00
34931;BME280;21134;49.646;8.560;2023-12-07T03:44:57;100913.13;;;-1.17;100.00
34931;BME280;21134;49.646;8.560;2023-12-07T03:47:23;100922.31;;;-1.18;100.00
34931;BME280;21134;49.646;8.560;2023-12-07T03:49:50;100925.59;;;-1.19;100.00
34931;BME280;21134;49.646;8.560;2023-12-07T03:52:18;100916.88;;;-1.25;100.00
34931;BME280;21134;49.646;8.560;2023-12-07T03:54:44;100920.06;;;-1.28;100.00
34931;BME280;21134;49.646;8.560;2023-12-07T03:57:10;100926.16;;;-1.24;100.00
34931;BME280;21134;49.646;8.560;2023-12-07T03:59:37;100925.09;;;-1.28;100.00
34931;BME280;21134;49.646;8.560;2023-12-07T04:02:03;100926.22;;;-1.23;100.00
34931;BME280;21134;49.646;8.560;2023-12-07T04:04:30;100927.59;;;-1.28;100.00
34931;BME280;21134;49.646;8.560;2023-12-07T04:06:57;100928.16;;;-1.33;100.00
34931;BME280;21134;49.646;8.560;2023-12-07T04:09:25;100932.22;;;-1.35;100.00
34931;BME280;21134;49.646;8.560;2023-12-07T04:11:51;100929.56;;;-1.38;100.00
34931;BME280;21134;49.646;8.560;2023-12-07T04:14:17;100928.75;;;-1.37;100.00
34931;BME280;21134;49.646;8.560;2023-12-07T04:16:44;100924.63;;;-1.37;100.00
34931;BME280;21134;49.646;8.560;2023-12-07T04:19:10;100925.50;;;-1.36;100.00
34931;BME280;21134;49.646;8.560;2023-12-07T04:21:37;100931.28;;;-1.37;100.00
34931;BME280;21134;49.646;8.560;2023-12-07T04:24:04;100928.59;;;-1.41;100.00
34931;BME280;21134;49.646;8.560;2023-12-07T04:26:32;100928.69;;;-1.39;100.00
34931;BME280;21134;49.646;8.560;2023-12-07T04:28:58;100932.06;;;-1.38;100.00
34931;BME280;21134;49.646;8.560;2023-12-07T04:31:24;100936.38;;;-1.36;100.00
34931;BME280;21134;49.646;8.560;2023-12-07T04:33:51;100938.97;;;-1.34;100.00
34931;BME280;21134;49.646;8.560;2023-12-07T04:36:17;100934.91;;;-1.32;100.00
34931;BME280;21134;49.646;8.560;2023-12-07T04:38:44;100941.63;;;-1.31;100.00
34931;BME280;21134;49.646;8.560;2023-12-07T04:41:10;100940.09;;;-1.29;100.00
34931;BME280;21134;49.646;8.560;2023-12-07T04:43:38;100940.78;;;-1.32;100.00
34931;BME280;21134;49.646;8.560;2023-12-07T04:46:05;100949.09;;;-1.33;100.00
34931;BME280;21134;49.646;8.560;2023-12-07T04:48:31;100957.13;;;-1.24;100.00
34931;BME280;21134;49.646;8.560;2023-12-07T04:51:01;100948.81;;;-1.23;100.00
34931;BME280;21134;49.646;8.560;2023-12-07T04:53:27;100955.72;;;-1.19;100.00
34931;BME280;21134;49.646;8.560;2023-12-07T04:55:53;100954.84;;;-1.19;100.00
34931;BME280;21134;49.646;8.560;2023-12-07T04:58:20;100954.94;;;-1.18;100.00
34931;BME280;21134;49.646;8.560;2023-12-07T05:00:48;100952.19;;;-1.22;100.00
34931;BME280;21134;49.646;8.560;2023-12-07T05:03:14;100952.28;;;-1.21;100.00
34931;BME280;21134;49.646;8.560;2023-12-07T05:05:41;100953.75;;;-1.24;100.00
34931;BME280;21134;49.646;8.560;2023-12-07T05:08:07;100954.28;;;-1.30;100.00
34931;BME280;21134;49.646;8.560;2023-12-07T05:10:34;100947.38;;;-1.34;100.00
34931;BME280;21134;49.646;8.560;2023-12-07T05:13:01;100938.72;;;-1.39;100.00
34931;BME280;21134;49.646;8.560;2023-12-07T05:15:27;100945.22;;;-1.43;100.00
34931;BME280;21134;49.646;8.560;2023-12-07T05:17:55;100935.81;;;-1.47;100.00
34931;BME280;21134;49.646;8.560;2023-12-07T05:20:21;100940.84;;;-1.47;100.00
34931;BME280;21134;49.646;8.560;2023-12-07T05:22:49;100945.06;;;-1.46;100.00
34931;BME280;21134;49.646;8.560;2023-12-07T05:25:16;100946.72;;;-1.46;100.00
34931;BME280;21134;49.646;8.560;2023-12-07T05:27:42;100948.44;;;-1.45;100.00
34931;BME280;21134;49.646;8.560;2023-12-07T05:30:09;100949.22;;;-1.46;100.00
34931;BME280;21134;49.646;8.560;2023-12-07T05:32:36;100945.59;;;-1.51;100.00
34931;BME280;21134;49.646;8.560;2023-12-07T05:35:05;100945.50;;;-1.53;100.00
34931;BME280;21134;49.646;8.560;2023-12-07T05:37:32;100947.06;;;-1.55;100.00
34931;BME280;21134;49.646;8.560;2023-12-07T05:39:58;100951.84;;;-1.59;100.00
34931;BME280;21134;49.646;8.560;2023-12-07T05:42:25;100946.56;;;-1.64;100.00
34931;BME280;21134;49.646;8.560;2023-12-07T05:44:51;100942.22;;;-1.67;100.00
34931;BME280;21134;49.646;8.560;2023-12-07T05:47:18;100952.94;;;-1.69;100.00
34931;BME280;21134;49.646;8.560;2023-12-07T05:49:44;100951.00;;;-1.75;100.00
34931;BME280;21134;49.646;8.560;2023-12-07T05:52:12;100946.03;;;-1.73;100.00
34931;BME280;21134;49.646;8.560;2023-12-07T05:54:39;100947.88;;;-1.71;100.00
34931;BME280;21134;49.646;8.560;2023-12-07T05:57:07;100956.94;;;-1.73;100.00
34931;BME280;21134;49.646;8.560;2023-12-07T05:59:36;100951.69;;;-1.77;100.00
34931;BME280;21134;49.646;8.560;2023-12-07T06:02:03;100952.63;;;-1.75;100.00
34931;BME280;21134;49.646;8.560;2023-12-07T06:04:29;100951.84;;;-1.74;100.00
34931;BME280;21134;49.646;8.560;2023-12-07T06:06:56;100956.94;;;-1.73;100.00
34931;BME280;21134;49.646;8.560;2023-12-07T06:09:24;100950.13;;;-1.75;100.00
34931;BME280;21134;49.646;8.560;2023-12-07T06:11:50;100950.88;;;-1.76;100.00
34931;BME280;21134;49.646;8.560;2023-12-07T06:14:16;100958.84;;;-1.83;100.00
34931;BME280;21134;49.646;8.560;2023-12-07T06:16:43;100953.66;;;-1.87;100.00
34931;BME280;21134;49.646;8.560;2023-12-07T06:19:09;100948.66;;;-1.87;100.00
34931;BME280;21134;49.646;8.560;2023-12-07T06:21:36;100955.31;;;-1.87;100.00
34931;BME280;21134;49.646;8.560;2023-12-07T06:24:03;100952.88;;;-1.85;100.00
34931;BME280;21134;49.646;8.560;2023-12-07T06:26:30;100946.75;;;-1.91;100.00
34931;BME280;21134;49.646;8.560;2023-12-07T06:28:58;100952.69;;;-1.89;100.00
34931;BME280;21134;49.646;8.560;2023-12-07T06:31:24;100953.59;;;-1.88;100.00
34931;BME280;21134;49.646;8.560;2023-12-07T06:33:51;100953.78;;;-1.85;100.00
34931;BME280;21134;49.646;8.560;2023-12-07T06:36:18;100956.84;;;-1.89;100.00
34931;BME280;21134;49.646;8.560;2023-12-07T06:38:45;100957.66;;;-1.90;100.00
34931;BME280;21134;49.646;8.560;2023-12-07T06:41:12;100967.69;;;-1.90;100.00
34931;BME280;21134;49.646;8.560;2023-12-07T06:43:39;100959.97;;;-1.93;100.00
34931;BME280;21134;49.646;8.560;2023-12-07T06:46:06;100963.34;;;-1.93;100.00
34931;BME280;21134;49.646;8.560;2023-12-07T06:48:32;100963.28;;;-1.94;100.00
34931;BME280;21134;49.646;8.560;2023-12-07T06:50:59;100966.53;;;-1.95;100.00
34931;BME280;21134;49.646;8.560;2023-12-07T06:53:25;100964.03;;;-1.95;100.00
34931;BME280;21134;49.646;8.560;2023-12-07T06:55:51;100964.03;;;-1.95;100.00
34931;BME280;21134;49.646;8.560;2023-12-07T06:58:18;100965.69;;;-1.96;100.00
34931;BME280;21134;49.646;8.560;2023-12-07T07:00:46;100974.34;;;-1.91;100.00
34931;BME280;21134;49.646;8.560;2023-12-07T07:03:12;100980.03;;;-1.93;100.00
34931;BME280;21134;49.646;8.560;2023-12-07T07:05:38;100977.44;;;-1.95;100.00
34931;BME280;21134;49.646;8.560;2023-12-07T07:08:05;100968.19;;;-1.96;100.00
34931;BME280;21134;49.646;8.560;2023-12-07T07:10:33;100976.31;;;-2.00;100.00
34931;BME280;21134;49.646;8.560;2023-12-07T07:12:59;100978.72;;;-2.01;100.00
34931;BME280;21134;49.646;8.560;2023-12-07T07:15:26;100974.78;;;-1.98;100.00
34931;BME280;21134;49.646;8.560;2023-12-07T07:17:54;100986.53;;;-1.97;100.00
34931;BME280;21134;49.646;8.560;2023-12-07T07:20:20;100987.03;;;-2.02;100.00
34931;BME280;21134;49.646;8.560;2023-12-07T07:22:47;100987.22;;;-1.99;100.00
34931;BME280;21134;49.646;8.560;2023-12-07T07:25:14;100993.69;;;-2.03;100.00
34931;BME280;21134;49.646;8.560;2023-12-07T07:27:41;100996.38;;;-2.00;100.00
34931;BME280;21134;49.646;8.560;2023-12-07T07:30:08;100995.94;;;-1.93;100.00
34931;BME280;21134;49.646;8.560;2023-12-07T07:32:35;100998.56;;;-1.91;100.00
34931;BME280;21134;49.646;8.560;2023-12-07T07:35:03;100993.63;;;-1.90;100.00
34931;BME280;21134;49.646;8.560;2023-12-07T07:37:30;100996.22;;;-1.88;100.00
34931;BME280;21134;49.646;8.560;2023-12-07T07:39:56;101008.16;;;-1.84;100.00
34931;BME280;21134;49.646;8.560;2023-12-07T07:42:22;101004.97;;;-1.81;100.00
34931;BME280;21134;49.646;8.560;2023-12-07T07:44:49;101004.16;;;-1.80;100.00
34931;BME280;21134;49.646;8.560;2023-12-07T07:47:16;100999.41;;;-1.76;100.00
34931;BME280;21134;49.646;8.560;2023-12-07T07:49:43;101004.75;;;-1.70;100.00
34931;BME280;21134;49.646;8.560;2023-12-07T07:52:11;101003.22;;;-1.68;100.00
34931;BME280;21134;49.646;8.560;2023-12-07T07:54:37;100998.28;;;-1.66;100.00
34931;BME280;21134;49.646;8.560;2023-12-07T07:57:04;100998.44;;;-1.63;100.00
34931;BME280;21134;49.646;8.560;2023-12-07T07:59:30;100996.03;;;-1.61;100.00
34931;BME280;21134;49.646;8.560;2023-12-07T08:01:57;100991.38;;;-1.55;100.00
34931;BME280;21134;49.646;8.560;2023-12-07T08:04:23;100988.75;;;-1.57;100.00
34931;BME280;21134;49.646;8.560;2023-12-07T08:06:50;100988.34;;;-1.50;100.00
34931;BME280;21134;49.646;8.560;2023-12-07T08:09:17;100993.38;;;-1.50;100.00
34931;BME280;21134;49.646;8.560;2023-12-07T08:11:44;100990.06;;;-1.49;100.00
34931;BME280;21134;49.646;8.560;2023-12-07T08:14:10;100981.13;;;-1.44;100.00
34931;BME280;21134;49.646;8.560;2023-12-07T08:16:38;100968.84;;;-1.39;100.00
34931;BME280;21134;49.646;8.560;2023-12-07T08:19:04;100956.38;;;-1.37;100.00
34931;BME280;21134;49.646;8.560;2023-12-07T08:21:30;100949.63;;;-1.38;100.00
34931;BME280;21134;49.646;8.560;2023-12-07T08:23:57;100940.44;;;-1.38;100.00
34931;BME280;21134;49.646;8.560;2023-12-07T08:26:25;100937.56;;;-1.29;100.00
34931;BME280;21134;49.646;8.560;2023-12-07T08:28:53;100935.94;;;-1.29;100.00
34931;BME280;21134;49.646;8.560;2023-12-07T08:31:19;100940.41;;;-1.23;100.00
34931;BME280;21134;49.646;8.560;2023-12-07T08:33:48;100944.91;;;-1.18;100.00
34931;BME280;21134;49.646;8.560;2023-12-07T08:36:15;100948.44;;;-1.14;100.00
34931;BME280;21134;49.646;8.560;2023-12-07T08:38:42;100957.06;;;-1.09;100.00
34931;BME280;21134;49.646;8.560;2023-12-07T08:41:08;100959.16;;;-1.02;100.00
34931;BME280;21134;49.646;8.560;2023-12-07T08:43:36;100956.06;;;-0.96;100.00
34931;BME280;21134;49.646;8.560;2023-12-07T08:46:03;100949.66;;;-0.91;100.00
34931;BME280;21134;49.646;8.560;2023-12-07T08:48:32;100956.56;;;-0.87;100.00
34931;BME280;21134;49.646;8.560;2023-12-07T08:50:58;100955.97;;;-0.83;100.00
34931;BME280;21134;49.646;8.560;2023-12-07T08:53:25;100950.19;;;-0.80;100.00
34931;BME280;21134;49.646;8.560;2023-12-07T08:55:53;100952.97;;;-0.76;100.00
34931;BME280;21134;49.646;8.560;2023-12-07T08:58:19;100944.00;;;-0.71;100.00
34931;BME280;21134;49.646;8.560;2023-12-07T09:00:47;100950.16;;;-0.65;100.00
34931;BME280;21134;49.646;8.560;2023-12-07T09:03:14;100952.19;;;-0.58;100.00
34931;BME280;21134;49.646;8.560;2023-12-07T09:05:40;100949.19;;;-0.51;100.00
34931;BME280;21134;49.646;8.560;2023-12-07T09:08:07;100949.66;;;-0.42;100.00
34931;BME280;21134;49.646;8.560;2023-12-07T09:10:33;100960.97;;;-0.34;100.00
34931;BME280;21134;49.646;8.560;2023-12-07T09:12:59;100956.25;;;-0.28;100.00
34931;BME280;21134;49.646;8.560;2023-12-07T09:15:26;100952.31;;;-0.22;100.00
34931;BME280;21134;49.646;8.560;2023-12-07T09:17:54;100948.75;;;-0.10;100.00
34931;BME280;21134;49.646;8.560;2023-12-07T09:20:21;100950.59;;;0.11;100.00
34931;BME280;21134;49.646;8.560;2023-12-07T09:22:47;100949.53;;;0.23;100.00
34931;BME280;21134;49.646;8.560;2023-12-07T09:25:15;100942.47;;;0.34;100.00
34931;BME280;21134;49.646;8.560;2023-12-07T09:27:42;100949.66;;;0.44;100.00
34931;BME280;21134;49.646;8.560;2023-12-07T09:30:09;100942.56;;;0.54;100.00
34931;BME280;21134;49.646;8.560;2023-12-07T09:32:37;100947.31;;;0.65;100.00
34931;BME280;21134;49.646;8.560;2023-12-07T09:35:06;100945.06;;;0.72;100.00
34931;BME280;21134;49.646;8.560;2023-12-07T09:37:34;100958.09;;;0.81;100.00
34931;BME280;21134;49.646;8.560;2023-12-07T09:40:00;100958.22;;;0.84;100.00
34931;BME280;21134;49.646;8.560;2023-12-07T09:42:29;100963.56;;;0.90;100.00
34931;BME280;21134;49.646;8.560;2023-12-07T09:44:56;100973.13;;;0.79;100.00
34931;BME280;21134;49.646;8.560;2023-12-07T09:47:23;100967.44;;;0.83;100.00
34931;BME280;21134;49.646;8.560;2023-12-07T09:49:49;100974.25;;;0.86;100.00
34931;BME280;21134;49.646;8.560;2023-12-07T09:52:18;100974.34;;;0.87;100.00
34931;BME280;21134;49.646;8.560;2023-12-07T09:54:45;100972.78;;;0.89;100.00
34931;BME280;21134;49.646;8.560;2023-12-07T09:57:12;100968.59;;;0.90;100.00
34931;BME280;21134;49.646;8.560;2023-12-07T09:59:39;100967.94;;;0.94;100.00
34931;BME280;21134;49.646;8.560;2023-12-07T10:02:06;100956.13;;;0.93;100.00
34931;BME280;21134;49.646;8.560;2023-12-07T10:04:33;100952.16;;;0.98;100.00
34931;BME280;21134;49.646;8.560;2023-12-07T10:07:01;100960.06;;;1.06;100.00
34931;BME280;21134;49.646;8.560;2023-12-07T10:09:29;100956.94;;;1.11;100.00
34931;BME280;21134;49.646;8.560;2023-12-07T10:12:02;100953.78;;;1.15;100.00
34931;BME280;21134;49.646;8.560;2023-12-07T10:14:28;100952.91;;;1.15;100.00
34931;BME280;21134;49.646;8.560;2023-12-07T10:16:55;100950.59;;;1.20;100.00
34931;BME280;21134;49.646;8.560;2023-12-07T10:19:22;100947.25;;;1.21;100.00
34931;BME280;21134;49.646;8.560;2023-12-07T10:21:50;100947.53;;;1.27;100.00
34931;BME280;21134;49.646;8.560;2023-12-07T10:24:17;100941.84;;;1.31;100.00
34931;BME280;21134;49.646;8.560;2023-12-07T10:26:45;100943.75;;;1.36;100.00
34931;BME280;21134;49.646;8.560;2023-12-07T10:29:12;100938.13;;;1.42;100.00
34931;BME280;21134;49.646;8.560;2023-12-07T10:31:38;100939.13;;;1.46;100.00
34931;BME280;21134;49.646;8.560;2023-12-07T10:34:05;100935.06;;;1.49;100.00
34931;BME280;21134;49.646;8.560;2023-12-07T10:36:32;100931.81;;;1.52;100.00
34931;BME280;21134;49.646;8.560;2023-12-07T10:38:58;100927.09;;;1.59;100.00
34931;BME280;21134;49.646;8.560;2023-12-07T10:41:25;100930.81;;;1.68;100.00
34931;BME280;21134;49.646;8.560;2023-12-07T10:44:00;100923.66;;;1.78;100.00
34931;BME280;21134;49.646;8.560;2023-12-07T10:46:27;100921.28;;;1.81;100.00
34931;BME280;21134;49.646;8.560;2023-12-07T10:48:57;100919.00;;;1.88;100.00
34931;BME280;21134;49.646;8.560;2023-12-07T10:51:30;100916.81;;;1.95;100.00
34931;BME280;21134;49.646;8.560;2023-12-07T10:53:57;100919.38;;;1.97;100.00
34931;BME280;21134;49.646;8.560;2023-12-07T10:56:29;100901.00;;;1.99;100.00
34931;BME280;21134;49.646;8.560;2023-12-07T10:59:00;100893.47;;;2.01;100.00
34931;BME280;21134;49.646;8.560;2023-12-07T11:01:27;100900.50;;;2.08;100.00
34931;BME280;21134;49.646;8.560;2023-12-07T11:03:56;100893.97;;;2.13;100.00
34931;BME280;21134;49.646;8.560;2023-12-07T11:06:23;100884.78;;;2.15;100.00
34931;BME280;21134;49.646;8.560;2023-12-07T11:08:51;100882.28;;;2.15;100.00
34931;BME280;21134;49.646;8.560;2023-12-07T11:11:26;100878.56;;;2.07;100.00
34931;BME280;21134;49.646;8.560;2023-12-07T11:13:58;100865.28;;;2.11;100.00
34931;BME280;21134;49.646;8.560;2023-12-07T11:16:30;100867.69;;;2.08;100.00
34931;BME280;21134;49.646;8.560;2023-12-07T11:18:57;100864.38;;;2.09;100.00
34931;BME280;21134;49.646;8.560;2023-12-07T11:21:24;100863.63;;;2.12;100.00
34931;BME280;21134;49.646;8.560;2023-12-07T11:23:52;100858.00;;;2.19;100.00
34931;BME280;21134;49.646;8.560;2023-12-07T11:26:19;100866.22;;;2.36;100.00
34931;BME280;21134;49.646;8.560;2023-12-07T11:28:46;100860.63;;;2.43;100.00
34931;BME280;21134;49.646;8.560;2023-12-07T11:31:13;100847.94;;;2.41;100.00
34931;BME280;21134;49.646;8.560;2023-12-07T11:33:41;100842.47;;;2.30;100.00
34931;BME280;21134;49.646;8.560;2023-12-07T11:36:09;100839.22;;;2.33;100.00
34931;BME280;21134;49.646;8.560;2023-12-07T11:38:36;100837.47;;;2.32;100.00
34931;BME280;21134;49.646;8.560;2023-12-07T11:41:03;100833.59;;;2.40;100.00
34931;BME280;21134;49.646;8.560;2023-12-07T11:43:42;100828.94;;;2.51;100.00
34931;BME280;21134;49.646;8.560;2023-12-07T11:46:12;100819.13;;;2.59;100.00
34931;BME280;21134;49.646;8.560;2023-12-07T11:48:46;100816.78;;;2.65;100.00
34931;BME280;21134;49.646;8.560;2023-12-07T11:51:13;100811.69;;;2.63;100.00
34931;BME280;21134;49.646;8.560;2023-12-07T11:53:39;100802.66;;;2.70;100.00
34931;BME280;21134;49.646;8.560;2023-12-07T11:56:07;100793.88;;;2.59;100.00
34931;BME280;21134;49.646;8.560;2023-12-07T11:58:36;100787.59;;;2.49;100.00
34931;BME280;21134;49.646;8.560;2023-12-07T12:01:03;100783.97;;;2.42;100.00
34931;BME280;21134;49.646;8.560;2023-12-07T12:03:31;100783.31;;;2.46;100.00
34931;BME280;21134;49.646;8.560;2023-12-07T12:05:59;100779.00;;;2.44;100.00
34931;BME280;21134;49.646;8.560;2023-12-07T12:08:25;100779.16;;;2.48;100.00
34931;BME280;21134;49.646;8.560;2023-12-07T12:10:53;100776.06;;;2.55;100.00
34931;BME280;21134;49.646;8.560;2023-12-07T12:13:26;100767.56;;;2.53;100.00
34931;BME280;21134;49.646;8.560;2023-12-07T12:15:53;100762.78;;;2.61;100.00
34931;BME280;21134;49.646;8.560;2023-12-07T12:18:21;100755.78;;;2.54;100.00
34931;BME280;21134;49.646;8.560;2023-12-07T12:20:50;100756.97;;;2.64;100.00
34931;BME280;21134;49.646;8.560;2023-12-07T12:23:17;100757.47;;;2.53;100.00
34931;BME280;21134;49.646;8.560;2023-12-07T12:25:45;100748.19;;;2.52;100.00
34931;BME280;21134;49.646;8.560;2023-12-07T12:28:16;100743.88;;;2.50;100.00
34931;BME280;21134;49.646;8.560;2023-12-07T12:30:43;100741.28;;;2.48;100.00
34931;BME280;21134;49.646;8.560;2023-12-07T12:33:09;100734.47;;;2.46;100.00
34931;BME280;21134;49.646;8.560;2023-12-07T12:35:36;100727.78;;;2.48;100.00
34931;BME280;21134;49.646;8.560;2023-12-07T12:38:09;100726.72;;;2.41;100.00
34931;BME280;21134;49.646;8.560;2023-12-07T12:40:37;100719.09;;;2.40;100.00
34931;BME280;21134;49.646;8.560;2023-12-07T12:43:04;100716.84;;;2.71;100.00